createdAt,value
2022-08-09T00:00:07.974Z,64.04
2022-08-09T00:02:43.085Z,63.99
2022-08-09T00:06:19.336Z,63.83
2022-08-09T00:08:10.123Z,63.65
2022-08-09T00:10:38.688Z,63.18
2022-08-09T00:13:17.530Z,63.53
2022-08-09T00:15:59.750Z,63.29
2022-08-09T00:18:34.980Z,64.51
2022-08-09T00:21:07.896Z,62.43
2022-08-09T00:23:56.663Z,62.57
2022-08-09T00:26:32.343Z,62.96
2022-08-09T00:29:01.834Z,62.71
2022-08-09T00:31:50.542Z,62.65
2022-08-09T00:34:19.451Z,62.47
2022-08-09T00:36:47.880Z,62.71
2022-08-09T00:40:09.228Z,63.28
2022-08-09T00:44:15.387Z,64.58
2022-08-09T00:44:48.618Z,64.21
2022-08-09T00:47:16.020Z,64.91
2022-08-09T00:49:52.448Z,64.94
2022-08-09T00:52:30.289Z,64.30
2022-08-09T00:55:01.922Z,65.05
2022-08-09T00:57:35.120Z,63.58
2022-08-09T01:00:21.859Z,62.76
2022-08-09T01:03:21.662Z,62.54
2022-08-09T01:06:19.007Z,62.43
2022-08-09T01:08:53.326Z,61.71
2022-08-09T01:11:55.522Z,61.23
2022-08-09T01:14:27.851Z,61.50
2022-08-09T01:17:01.127Z,60.73
2022-08-09T01:20:06.523Z,60.66
2022-08-09T01:22:54.674Z,61.26
2022-08-09T01:25:56.001Z,59.79
2022-08-09T01:28:26.110Z,59.48
2022-08-09T01:30:59.110Z,59.58
2022-08-09T01:33:29.889Z,60.03
2022-08-09T01:35:56.501Z,60.06
2022-08-09T01:38:30.074Z,61.55
2022-08-09T01:41:06.373Z,59.48
2022-08-09T01:43:51.845Z,61.58
2022-08-09T01:46:24.910Z,60.91
2022-08-09T01:49:20.986Z,60.72
2022-08-09T01:52:07.521Z,59.64
2022-08-09T01:54:56.585Z,59.79
2022-08-09T01:57:46.021Z,60.11
2022-08-09T02:00:19.161Z,59.80
2022-08-09T02:03:01.697Z,62.56
2022-08-09T02:05:38.126Z,60.72
2022-08-09T02:08:41.210Z,58.81
2022-08-09T02:11:16.772Z,59.54
2022-08-09T02:13:55.224Z,59.38
2022-08-09T02:16:52.882Z,59.42
2022-08-09T02:19:22.979Z,58.20
2022-08-09T02:21:55.562Z,58.69
2022-08-09T02:24:26.929Z,59.74
2022-08-09T02:26:58.729Z,59.28
2022-08-09T02:29:31.291Z,60.33
2022-08-09T02:32:02.000Z,59.68
2022-08-09T02:34:41.257Z,60.27
2022-08-09T02:37:22.348Z,62.13
2022-08-09T02:40:01.551Z,61.62
2022-08-09T02:42:36.951Z,61.11
2022-08-09T02:45:21.285Z,60.67
2022-08-09T02:47:59.281Z,62.37
2022-08-09T02:50:31.099Z,61.67
2022-08-09T02:53:01.864Z,60.91
2022-08-09T02:55:46.318Z,60.90
2022-08-09T02:58:36.153Z,61.82
2022-08-09T03:01:08.178Z,61.24
2022-08-09T03:04:17.476Z,61.89
2022-08-09T03:06:27.864Z,62.11
2022-08-09T03:08:57.661Z,60.36
2022-08-09T03:12:04.177Z,60.52
2022-08-09T03:14:13.550Z,61.36
2022-08-09T03:16:45.058Z,61.83
2022-08-09T03:19:59.519Z,61.59
2022-08-09T03:22:04.687Z,61.70
2022-08-09T03:24:51.819Z,61.88
2022-08-09T03:27:21.360Z,60.09
2022-08-09T03:29:58.211Z,60.45
2022-08-09T03:32:34.056Z,61.00
2022-08-09T03:35:04.999Z,60.64
2022-08-09T03:37:56.620Z,60.49
2022-08-09T03:40:25.572Z,60.68
2022-08-09T03:42:58.018Z,60.69
2022-08-09T03:46:03.202Z,61.00
2022-08-09T03:48:11.662Z,60.98
2022-08-09T03:50:46.204Z,60.65
2022-08-09T03:53:16.935Z,60.02
2022-08-09T03:55:48.535Z,60.58
2022-08-09T03:58:20.947Z,60.59
2022-08-09T04:00:49.671Z,60.19
2022-08-09T04:03:24.675Z,60.13
2022-08-09T04:06:04.614Z,60.08
2022-08-09T04:08:32.443Z,59.53
2022-08-09T04:11:01.241Z,58.95
2022-08-09T04:14:37.305Z,59.66
2022-08-09T04:16:19.220Z,59.61
2022-08-09T04:18:49.217Z,60.00
2022-08-09T04:21:19.016Z,59.12
2022-08-09T04:23:54.522Z,59.16
2022-08-09T04:26:25.320Z,57.21
2022-08-09T04:29:10.829Z,57.58
2022-08-09T04:31:46.759Z,58.02
2022-08-09T04:34:13.689Z,57.45
2022-08-09T04:36:50.214Z,57.64
2022-08-09T04:39:17.378Z,57.01
2022-08-09T04:41:44.401Z,58.54
2022-08-09T04:44:14.455Z,57.03
2022-08-09T04:46:59.062Z,56.85
2022-08-09T04:49:54.816Z,56.59
2022-08-09T04:52:26.570Z,56.01
2022-08-09T04:54:56.064Z,56.99
2022-08-09T04:57:24.443Z,56.73
2022-08-09T04:59:54.129Z,56.77
2022-08-09T05:02:21.452Z,56.40
2022-08-09T05:04:48.718Z,55.95
2022-08-09T05:07:22.229Z,55.52
2022-08-09T05:09:50.358Z,56.31
2022-08-09T05:12:17.486Z,55.81
2022-08-09T05:14:45.167Z,56.82
2022-08-09T05:18:39.875Z,56.70
2022-08-09T05:19:58.617Z,55.86
2022-08-09T05:22:33.275Z,55.88
2022-08-09T05:25:04.428Z,54.64
2022-08-09T05:27:31.459Z,53.93
2022-08-09T05:29:59.072Z,54.37
2022-08-09T05:32:30.003Z,54.19
2022-08-09T05:34:57.315Z,52.14
2022-08-09T05:37:25.345Z,53.01
2022-08-09T05:39:52.440Z,54.20
2022-08-09T05:42:21.342Z,52.26
2022-08-09T05:44:53.435Z,52.29
2022-08-09T05:47:23.315Z,53.97
2022-08-09T05:50:30.611Z,53.43
2022-08-09T05:52:40.204Z,54.02
2022-08-09T05:55:09.781Z,54.22
2022-08-09T05:57:55.332Z,53.61
2022-08-09T06:00:25.885Z,53.56
2022-08-09T06:02:54.657Z,53.80
2022-08-09T06:05:49.851Z,53.99
2022-08-09T06:08:12.305Z,54.12
2022-08-09T06:10:39.081Z,52.96
2022-08-09T06:13:18.279Z,53.01
2022-08-09T06:15:46.904Z,54.33
2022-08-09T06:18:14.847Z,53.33
2022-08-09T06:20:42.929Z,53.07
2022-08-09T06:23:16.740Z,52.66
2022-08-09T06:25:43.450Z,52.81
2022-08-09T06:28:10.176Z,51.98
2022-08-09T06:30:40.535Z,53.15
2022-08-09T06:33:29.943Z,52.64
2022-08-09T06:35:58.479Z,52.69
2022-08-09T06:38:31.957Z,51.71
2022-08-09T06:41:03.628Z,52.24
2022-08-09T06:43:34.107Z,50.97
2022-08-09T06:46:06.240Z,50.53
2022-08-09T06:48:37.141Z,52.02
2022-08-09T06:51:10.778Z,51.90
2022-08-09T06:53:39.243Z,51.55
2022-08-09T06:56:07.583Z,51.45
2022-08-09T07:00:46.942Z,50.41
2022-08-09T07:01:24.298Z,49.72
2022-08-09T07:04:04.125Z,49.97
2022-08-09T07:06:31.059Z,50.12
2022-08-09T07:08:58.320Z,49.64
2022-08-09T07:11:25.728Z,48.81
2022-08-09T07:14:05.062Z,48.97
2022-08-09T07:16:43.461Z,48.95
2022-08-09T07:19:22.997Z,48.98
2022-08-09T07:21:57.638Z,49.75
2022-08-09T07:24:32.040Z,49.36
2022-08-09T07:27:11.035Z,48.45
2022-08-09T07:29:57.054Z,49.11
2022-08-09T07:32:33.174Z,48.16
2022-08-09T07:35:10.062Z,48.72
2022-08-09T07:37:44.138Z,47.99
2022-08-09T07:40:18.833Z,47.43
2022-08-09T07:42:52.459Z,48.28
2022-08-09T07:45:37.301Z,48.51
2022-08-09T07:48:05.701Z,48.67
2022-08-09T07:50:36.514Z,49.01
2022-08-09T07:53:10.542Z,49.94
2022-08-09T07:55:41.651Z,48.84
2022-08-09T07:58:26.135Z,49.66
2022-08-09T08:00:58.674Z,49.80
2022-08-09T08:03:36.960Z,50.25
2022-08-09T08:06:05.052Z,49.39
2022-08-09T08:09:00.267Z,49.49
2022-08-09T08:12:24.942Z,49.54
2022-08-09T08:14:06.613Z,49.27
2022-08-09T08:16:34.529Z,49.47
2022-08-09T08:19:02.983Z,49.37
2022-08-09T08:21:31.466Z,49.04
2022-08-09T08:24:01.401Z,48.71
2022-08-09T08:26:41.860Z,48.52
2022-08-09T08:29:27.673Z,47.69
2022-08-09T08:32:03.883Z,47.57
2022-08-09T08:34:34.519Z,46.83
2022-08-09T08:37:02.982Z,46.87
2022-08-09T08:39:33.004Z,47.68
2022-08-09T08:42:07.287Z,47.37
2022-08-09T08:44:37.504Z,47.20
2022-08-09T08:47:12.864Z,49.56
2022-08-09T08:49:48.068Z,47.54
2022-08-09T08:55:08.751Z,47.39
2022-08-09T08:57:37.655Z,47.29
2022-08-09T09:00:17.049Z,47.98
2022-08-09T09:02:52.813Z,47.43
2022-08-09T09:05:32.936Z,47.01
2022-08-09T09:08:30.459Z,47.35
2022-08-09T09:11:02.776Z,46.49
2022-08-09T09:13:55.029Z,47.66
2022-08-09T09:16:30.887Z,47.97
2022-08-09T09:19:29.199Z,46.64
2022-08-09T09:22:00.473Z,47.60
2022-08-09T09:24:29.788Z,47.58
2022-08-09T09:26:58.553Z,48.61
2022-08-09T09:29:46.056Z,47.04
2022-08-09T09:32:34.999Z,46.77
2022-08-09T09:35:16.011Z,46.46
2022-08-09T09:37:46.135Z,46.44
2022-08-09T09:40:13.195Z,46.42
2022-08-09T09:42:45.987Z,45.56
2022-08-09T09:45:14.380Z,45.66
2022-08-09T09:47:56.520Z,46.43
2022-08-09T09:50:51.207Z,45.63
2022-08-09T09:53:34.398Z,47.31
2022-08-09T09:56:30.859Z,46.05
2022-08-09T09:58:58.268Z,46.41
2022-08-09T10:01:37.648Z,44.41
2022-08-09T10:04:22.755Z,44.28
2022-08-09T10:06:57.579Z,46.17
2022-08-09T10:09:24.636Z,46.20
2022-08-09T10:12:07.585Z,46.58
2022-08-09T10:14:39.964Z,46.09
2022-08-09T10:17:38.723Z,45.57
2022-08-09T10:20:31.792Z,45.30
2022-08-09T10:23:17.453Z,44.45
2022-08-09T10:26:07.030Z,45.79
2022-08-09T10:28:35.977Z,45.41
2022-08-09T10:34:10.522Z,43.93
2022-08-09T10:36:40.098Z,45.04
2022-08-09T10:39:14.219Z,45.61
2022-08-09T10:41:43.187Z,44.01
2022-08-09T10:44:10.723Z,44.51
2022-08-09T10:47:01.074Z,44.53
2022-08-09T10:50:07.017Z,43.19
2022-08-09T10:52:55.198Z,44.31
2022-08-09T10:55:28.942Z,42.88
2022-08-09T10:58:31.011Z,42.29
2022-08-09T11:03:03.350Z,41.89
2022-08-09T11:04:19.989Z,42.27
2022-08-09T11:07:00.094Z,41.62
2022-08-09T11:09:47.949Z,42.88
2022-08-09T11:12:29.541Z,43.46
2022-08-09T11:15:20.552Z,42.63
2022-08-09T11:18:03.141Z,40.53
2022-08-09T11:20:49.640Z,43.84
2022-08-09T11:23:17.134Z,42.20
2022-08-09T11:25:51.092Z,42.40
2022-08-09T11:28:38.859Z,42.37
2022-08-09T11:31:43.561Z,41.59
2022-08-09T11:34:24.529Z,39.96
2022-08-09T11:36:52.017Z,40.45
2022-08-09T11:39:18.786Z,39.91
2022-08-09T11:41:46.781Z,42.01
2022-08-09T11:44:15.647Z,41.50
2022-08-09T11:46:57.502Z,41.12
2022-08-09T11:50:53.082Z,40.20
2022-08-09T11:53:57.461Z,40.22
2022-08-09T11:55:53.539Z,41.23
2022-08-09T11:58:33.597Z,40.85
2022-08-09T12:01:15.729Z,41.83
2022-08-09T12:04:00.936Z,40.11
2022-08-09T12:06:32.380Z,39.60
2022-08-09T12:09:06.599Z,40.81
2022-08-09T12:12:03.092Z,42.04
2022-08-09T12:14:40.433Z,40.56
2022-08-09T12:17:34.363Z,41.47
2022-08-09T12:20:16.601Z,41.42
2022-08-09T12:23:07.806Z,40.04
2022-08-09T12:25:38.468Z,39.89
2022-08-09T12:29:11.994Z,38.98
2022-08-09T12:31:58.739Z,39.88
2022-08-09T12:34:11.604Z,39.92
2022-08-09T12:36:58.799Z,40.34
2022-08-09T12:39:37.655Z,40.08
2022-08-09T12:42:09.512Z,39.59
2022-08-09T12:44:41.955Z,40.85
2022-08-09T12:47:13.455Z,40.57
2022-08-09T12:50:09.706Z,41.34
2022-08-09T12:52:44.286Z,41.11
2022-08-09T12:56:12.014Z,39.99
2022-08-09T12:58:27.372Z,39.26
2022-08-09T13:00:55.123Z,41.35
2022-08-09T13:03:56.630Z,39.91
2022-08-09T13:06:35.787Z,41.84
2022-08-09T13:09:08.583Z,40.49
2022-08-09T13:11:42.467Z,39.24
2022-08-09T13:14:41.542Z,40.84
2022-08-09T13:17:08.572Z,41.86
2022-08-09T13:20:10.101Z,41.44
2022-08-09T13:22:35.952Z,40.46
2022-08-09T13:25:07.607Z,41.98
2022-08-09T13:27:40.172Z,41.28
2022-08-09T13:31:11.633Z,42.76
2022-08-09T13:33:05.045Z,40.31
2022-08-09T13:35:34.160Z,40.10
2022-08-09T13:38:02.518Z,41.38
2022-08-09T13:41:50.896Z,40.08
2022-08-09T13:43:18.987Z,39.24
2022-08-09T13:46:43.213Z,38.67
2022-08-09T13:48:32.691Z,38.65
2022-08-09T13:51:00.442Z,39.25
2022-08-09T13:53:41.410Z,38.56
2022-08-09T13:56:11.947Z,38.08
2022-08-09T13:58:39.181Z,39.38
2022-08-09T14:01:06.129Z,41.54
2022-08-09T14:04:04.758Z,40.59
2022-08-09T14:06:29.586Z,40.23
2022-08-09T14:08:58.821Z,39.81
2022-08-09T14:11:25.592Z,39.54
2022-08-09T14:14:25.022Z,40.08
2022-08-09T14:16:40.360Z,39.36
2022-08-09T14:19:07.542Z,39.36
2022-08-09T14:21:34.455Z,40.27
2022-08-09T14:24:10.059Z,40.78
2022-08-09T14:26:37.873Z,40.61
2022-08-09T14:29:07.518Z,40.24
2022-08-09T14:31:54.027Z,42.33
2022-08-09T14:34:31.302Z,43.37
2022-08-09T14:37:07.421Z,41.01
2022-08-09T14:39:46.655Z,39.92
2022-08-09T14:42:32.065Z,40.80
2022-08-09T14:46:56.604Z,41.63
2022-08-09T14:47:59.643Z,41.59
2022-08-09T14:50:33.009Z,41.65
2022-08-09T14:53:03.300Z,40.28
2022-08-09T14:55:33.247Z,39.92
2022-08-09T14:58:03.286Z,40.05
2022-08-09T15:00:32.210Z,40.62
2022-08-09T15:03:01.109Z,41.14
2022-08-09T15:05:27.910Z,40.74
2022-08-09T15:07:58.283Z,41.27
2022-08-09T15:10:26.348Z,40.78
2022-08-09T15:12:56.894Z,40.65
2022-08-09T15:15:28.617Z,39.89
2022-08-09T15:17:56.777Z,40.01
2022-08-09T15:21:57.533Z,39.84
2022-08-09T15:24:02.412Z,40.18
2022-08-09T15:25:59.765Z,41.00
2022-08-09T15:28:28.449Z,40.30
2022-08-09T15:31:14.627Z,41.73
2022-08-09T15:34:33.343Z,41.01
2022-08-09T15:36:32.293Z,40.83
2022-08-09T15:39:00.284Z,39.59
2022-08-09T15:41:31.284Z,37.11
2022-08-09T15:43:58.626Z,35.98
2022-08-09T15:46:31.918Z,37.99
2022-08-09T15:49:21.897Z,39.91
2022-08-09T15:52:03.001Z,38.05
2022-08-09T15:54:46.308Z,39.93
2022-08-09T15:57:34.694Z,41.45
2022-08-09T16:00:14.176Z,40.96
2022-08-09T16:02:54.295Z,40.28
2022-08-09T16:05:23.461Z,42.50
2022-08-09T16:07:50.792Z,42.03
2022-08-09T16:10:55.623Z,40.12
2022-08-09T16:13:18.494Z,42.29
2022-08-09T16:16:10.739Z,43.96
2022-08-09T16:18:32.761Z,44.58
2022-08-09T16:20:59.603Z,43.66
2022-08-09T16:23:27.115Z,44.92
2022-08-09T16:26:00.931Z,44.12
2022-08-09T16:28:29.814Z,43.62
2022-08-09T16:30:59.367Z,45.03
2022-08-09T16:33:27.486Z,44.72
2022-08-09T16:36:00.926Z,43.24
2022-08-09T16:38:30.141Z,43.82
2022-08-09T16:40:57.171Z,43.37
2022-08-09T16:43:24.687Z,42.66
2022-08-09T16:45:54.093Z,44.12
2022-08-09T16:48:39.726Z,45.42
2022-08-09T16:51:13.946Z,46.29
2022-08-09T16:56:34.041Z,46.31
2022-08-09T16:59:06.795Z,46.58
2022-08-09T17:01:37.807Z,44.80
2022-08-09T17:04:06.509Z,45.74
2022-08-09T17:07:07.279Z,43.14
2022-08-09T17:09:44.905Z,45.62
2022-08-09T17:12:08.413Z,45.06
2022-08-09T17:14:35.432Z,45.82
2022-08-09T17:17:03.676Z,46.93
2022-08-09T17:20:32.648Z,47.70
2022-08-09T17:22:39.174Z,46.95
2022-08-09T17:25:17.534Z,46.59
2022-08-09T17:27:49.102Z,46.01
2022-08-09T17:30:28.851Z,46.23
2022-08-09T17:33:05.273Z,46.87
2022-08-09T17:35:45.408Z,48.22
2022-08-09T17:38:30.459Z,47.38
2022-08-09T17:40:59.149Z,47.75
2022-08-09T17:43:34.379Z,47.57
2022-08-09T17:46:09.081Z,48.38
2022-08-09T17:48:40.366Z,48.49
2022-08-09T17:51:17.865Z,48.39
2022-08-09T17:53:52.021Z,48.58
2022-08-09T17:56:28.916Z,49.37
2022-08-09T17:58:58.367Z,48.69
2022-08-09T18:02:03.865Z,49.86
2022-08-09T18:04:13.575Z,49.92
2022-08-09T18:06:43.118Z,50.19
2022-08-09T18:09:41.145Z,50.63
2022-08-09T18:12:16.979Z,49.34
2022-08-09T18:14:54.187Z,49.66
2022-08-09T18:18:02.268Z,50.11
2022-08-09T18:20:56.772Z,49.50
2022-08-09T18:23:05.496Z,50.18
2022-08-09T18:25:50.493Z,49.98
2022-08-09T18:30:41.747Z,51.08
2022-08-09T18:31:14.506Z,52.48
2022-08-09T18:33:44.171Z,53.97
2022-08-09T18:36:25.998Z,55.35
2022-08-09T18:39:02.162Z,55.65
2022-08-09T18:41:34.339Z,55.01
2022-08-09T18:44:03.329Z,54.02
2022-08-09T18:46:47.706Z,54.40
2022-08-09T18:49:17.977Z,55.41
2022-08-09T18:51:55.412Z,55.96
2022-08-09T18:54:28.446Z,56.24
2022-08-09T18:57:05.766Z,56.99
2022-08-09T18:59:37.638Z,56.88
2022-08-09T19:02:17.497Z,57.46
2022-08-09T19:04:47.509Z,57.77
2022-08-09T19:07:16.356Z,58.80
2022-08-09T19:10:15.528Z,58.77
2022-08-09T19:12:31.892Z,58.43
2022-08-09T19:15:00.834Z,58.63
2022-08-09T19:17:31.296Z,60.04
2022-08-09T19:19:58.614Z,60.48
2022-08-09T19:22:27.598Z,61.71
2022-08-09T19:25:11.980Z,61.20
2022-08-09T19:27:42.101Z,60.31
2022-08-09T19:30:22.403Z,59.73
2022-08-09T19:32:55.501Z,60.10
2022-08-09T19:35:26.044Z,61.51
2022-08-09T19:37:57.745Z,60.97
2022-08-09T19:40:34.106Z,60.47
2022-08-09T19:43:03.858Z,58.27
2022-08-09T19:45:40.427Z,57.60
2022-08-09T19:48:10.695Z,56.77
2022-08-09T19:50:49.743Z,57.27
2022-08-09T19:53:20.785Z,55.35
2022-08-09T19:56:01.836Z,54.42
2022-08-09T19:58:30.457Z,52.13
2022-08-09T20:00:58.386Z,48.29
2022-08-09T20:04:10.934Z,47.64
2022-08-09T20:06:23.208Z,47.90
2022-08-09T20:08:56.803Z,50.19
2022-08-09T20:11:26.689Z,47.97
2022-08-09T20:13:54.710Z,49.28
2022-08-09T20:16:34.295Z,50.39
2022-08-09T20:19:46.364Z,49.57
2022-08-09T20:21:56.428Z,46.86
2022-08-09T20:24:29.478Z,45.84
2022-08-09T20:27:01.088Z,47.35
2022-08-09T20:29:36.938Z,46.82
2022-08-09T20:32:41.934Z,47.40
2022-08-09T20:34:51.351Z,46.24
2022-08-09T20:37:21.625Z,45.99
2022-08-09T20:40:15.116Z,44.13
2022-08-09T20:42:36.234Z,46.67
2022-08-09T20:45:59.670Z,45.44
2022-08-09T20:47:53.025Z,46.06
2022-08-09T20:50:47.192Z,46.28
2022-08-09T20:53:21.100Z,44.74
2022-08-09T20:56:01.083Z,46.12
2022-08-09T20:58:32.518Z,45.72
2022-08-09T21:01:33.039Z,46.13
2022-08-09T21:04:14.065Z,46.24
2022-08-09T21:06:36.412Z,45.66
2022-08-09T21:09:03.737Z,46.28
2022-08-09T21:14:17.586Z,45.14
2022-08-09T21:16:45.757Z,45.71
2022-08-09T21:20:17.071Z,45.61
2022-08-09T21:22:00.133Z,45.76
2022-08-09T21:24:32.722Z,45.46
2022-08-09T21:27:10.473Z,45.38
2022-08-09T21:29:49.331Z,45.73
2022-08-09T21:32:18.948Z,45.41
2022-08-09T21:34:49.272Z,44.99
2022-08-09T21:37:18.238Z,46.16
2022-08-09T21:40:02.792Z,45.30
2022-08-09T21:42:36.769Z,44.99
2022-08-09T21:45:05.404Z,45.82
2022-08-09T21:47:32.783Z,46.12
2022-08-09T21:50:00.862Z,45.70
2022-08-09T21:52:30.010Z,44.49
2022-08-09T21:55:03.680Z,45.75
2022-08-09T21:57:39.340Z,45.09
2022-08-09T22:00:33.037Z,45.04
2022-08-09T22:03:04.387Z,45.29
2022-08-09T22:05:37.688Z,45.32
2022-08-09T22:08:12.993Z,45.68
2022-08-09T22:11:50.358Z,45.88
2022-08-09T22:13:35.442Z,44.68
2022-08-09T22:16:08.693Z,44.31
2022-08-09T22:18:37.690Z,44.70
2022-08-09T22:21:09.921Z,44.91
2022-08-09T22:23:59.282Z,46.12
2022-08-09T22:26:35.132Z,45.16
2022-08-09T22:29:07.449Z,46.98
2022-08-09T22:31:36.078Z,44.94
2022-08-09T22:34:03.562Z,44.41
2022-08-09T22:36:46.020Z,45.43
2022-08-09T22:39:46.917Z,46.39
2022-08-09T22:42:16.202Z,46.97
2022-08-09T22:44:49.244Z,46.65
2022-08-09T22:48:18.481Z,48.20
2022-08-09T22:50:14.439Z,47.52
2022-08-09T22:52:41.677Z,47.69
2022-08-09T22:55:09.140Z,47.94
2022-08-09T22:57:59.973Z,48.54
2022-08-09T23:00:29.271Z,49.40
2022-08-09T23:02:56.652Z,48.15
2022-08-09T23:05:25.359Z,48.54
2022-08-09T23:08:27.582Z,47.37
2022-08-09T23:10:56.948Z,49.08
2022-08-09T23:13:23.695Z,48.98
2022-08-09T23:16:03.297Z,48.17
2022-08-09T23:18:31.314Z,47.79
2022-08-09T23:20:58.055Z,47.44
2022-08-09T23:23:24.809Z,47.65
2022-08-09T23:25:51.519Z,48.81
2022-08-09T23:28:18.328Z,47.81
2022-08-09T23:30:51.263Z,48.32
2022-08-09T23:33:20.793Z,48.78
2022-08-09T23:36:06.175Z,47.85
2022-08-09T23:38:34.892Z,48.22
2022-08-09T23:41:02.903Z,48.56
2022-08-09T23:43:29.733Z,48.58
2022-08-09T23:45:56.522Z,48.30
2022-08-09T23:48:23.246Z,48.79
2022-08-09T23:50:49.959Z,48.73
2022-08-09T23:53:16.732Z,47.68
2022-08-09T23:55:49.210Z,48.01
2022-08-09T23:58:25.542Z,49.05
